Time;durP1;ratioP1;P1;durP2;ratioP2;P2;SDS_P1;SDS_P2;PMS_P1;PMS_P2;Temp;Humidity;BMP_temperature;BMP_pressure;BME280_temperature;BME280_humidity;BME280_pressure;Samples;Min_cycle;Max_cycle;Signal;HPM_P1;HPM_P2
2023/05/26 00:01:58;;;;;;;19.00;12.43;;;15.10;22.90;;;;;;5066346;28;21176;-67
2023/05/26 00:04:27;;;;;;;17.23;11.40;;;15.10;23.00;;;;;;5070330;28;20457;-67
2023/05/26 00:06:55;;;;;;;18.20;11.97;;;15.00;23.00;;;;;;5068945;28;20465;-66
2023/05/26 00:09:22;;;;;;;16.67;11.27;;;15.00;22.90;;;;;;5065540;28;20505;-67
2023/05/26 00:11:48;;;;;;;17.40;11.70;;;14.90;23.10;;;;;;5069471;28;21187;-66
2023/05/26 00:14:15;;;;;;;18.30;11.17;;;14.80;23.40;;;;;;5069895;28;20457;-66
2023/05/26 00:16:42;;;;;;;19.33;10.77;;;14.80;23.30;;;;;;5070051;28;20464;-67
2023/05/26 00:19:09;;;;;;;18.10;12.20;;;14.80;23.50;;;;;;5068819;28;20523;-68
2023/05/26 00:21:38;;;;;;;17.80;11.77;;;14.70;23.80;;;;;;5066671;28;20465;-67
2023/05/26 00:24:05;;;;;;;19.27;12.00;;;14.70;24.00;;;;;;5069541;28;20515;-67
2023/05/26 00:26:32;;;;;;;18.30;11.73;;;14.70;23.90;;;;;;5067793;28;20511;-67
2023/05/26 00:28:59;;;;;;;16.13;11.60;;;14.70;23.90;;;;;;5065399;28;21027;-67
2023/05/26 00:31:26;;;;;;;16.83;11.33;;;14.60;24.10;;;;;;5069161;28;20485;-67
2023/05/26 00:33:53;;;;;;;15.53;10.53;;;14.60;24.20;;;;;;5067262;28;20461;-66
2023/05/26 00:36:19;;;;;;;16.07;11.97;;;14.50;24.30;;;;;;5068705;28;20813;-66
2023/05/26 00:38:47;;;;;;;19.40;11.40;;;14.50;24.50;;;;;;5066760;28;20460;-66
2023/05/26 00:41:14;;;;;;;16.17;12.07;;;14.50;24.50;;;;;;5067836;28;20464;-66
2023/05/26 00:43:41;;;;;;;19.60;13.40;;;14.40;24.30;;;;;;5067542;28;20488;-67
2023/05/26 00:46:08;;;;;;;20.63;13.50;;;14.40;24.60;;;;;;5060629;28;20970;-66
2023/05/26 00:48:34;;;;;;;14.83;10.63;;;14.30;24.60;;;;;;5064298;28;20481;-66
2023/05/26 00:51:01;;;;;;;14.53;10.30;;;14.30;24.80;;;;;;5065728;28;20461;-67
2023/05/26 00:53:28;;;;;;;19.27;11.00;;;14.30;24.80;;;;;;5062963;28;21189;-66
2023/05/26 00:55:57;;;;;;;15.83;10.97;;;14.30;24.90;;;;;;5067269;28;20461;-66
2023/05/26 00:58:24;;;;;;;16.40;11.70;;;14.20;25.00;;;;;;5067778;28;20457;-66
2023/05/26 01:00:51;;;;;;;18.20;10.63;;;14.20;25.00;;;;;;5065160;28;21207;-67
2023/05/26 01:03:18;;;;;;;16.07;11.30;;;14.10;25.00;;;;;;5065600;28;20488;-66
2023/05/26 01:05:44;;;;;;;15.97;11.00;;;14.10;25.20;;;;;;5065937;28;20457;-66
2023/05/26 01:08:11;;;;;;;20.13;11.13;;;14.10;25.80;;;;;;5066558;28;20476;-67
2023/05/26 01:10:38;;;;;;;18.93;11.73;;;14.10;25.10;;;;;;5066948;28;20468;-66
2023/05/26 01:13:10;;;;;;;19.30;11.63;;;14.00;24.90;;;;;;5068032;28;20481;-66
2023/05/26 01:15:42;;;;;;;16.13;12.20;;;14.00;25.10;;;;;;5056667;28;20458;-67
2023/05/26 01:18:13;;;;;;;15.77;11.07;;;14.00;25.10;;;;;;5064780;28;20957;-67
2023/05/26 01:20:43;;;;;;;17.97;11.30;;;13.90;25.10;;;;;;5065106;28;20879;-67
2023/05/26 01:23:33;;;;;;;15.80;11.70;;;13.90;25.20;;;;;;5060992;28;20989;-67
2023/05/26 01:26:27;;;;;;;17.17;10.70;;;13.90;25.40;;;;;;5064715;28;20463;-66
2023/05/26 01:29:00;;;;;;;18.33;11.97;;;13.90;25.40;;;;;;5068595;28;20484;-66
2023/05/26 01:31:26;;;;;;;20.10;12.97;;;13.80;25.30;;;;;;5063980;28;20465;-66
2023/05/26 01:33:53;;;;;;;18.60;11.53;;;13.80;25.30;;;;;;5068144;28;20464;-65
2023/05/26 01:36:20;;;;;;;17.53;13.27;;;13.80;25.50;;;;;;5077157;28;20473;-66
2023/05/26 01:38:47;;;;;;;18.30;12.43;;;13.80;25.60;;;;;;5067535;28;20461;-66
2023/05/26 01:41:27;;;;;;;15.30;11.60;;;13.70;25.60;;;;;;5067893;28;20453;-66
2023/05/26 01:44:00;;;;;;;15.20;10.87;;;13.70;25.90;;;;;;5064289;28;20951;-66
2023/05/26 01:46:33;;;;;;;16.67;11.83;;;13.70;25.90;;;;;;5067813;28;20469;-67
2023/05/26 01:49:02;;;;;;;18.20;12.50;;;13.70;25.90;;;;;;5064609;28;20485;-66
2023/05/26 01:51:35;;;;;;;17.47;12.90;;;13.70;25.80;;;;;;5067575;28;20476;-66
2023/05/26 01:54:05;;;;;;;20.37;11.43;;;13.60;25.90;;;;;;5063515;28;20465;-65
2023/05/26 01:56:34;;;;;;;20.80;12.27;;;13.60;25.80;;;;;;5064756;28;20939;-67
2023/05/26 01:59:04;;;;;;;21.23;11.90;;;13.60;25.90;;;;;;5067640;28;20464;-66
2023/05/26 02:01:33;;;;;;;17.43;10.57;;;13.60;25.90;;;;;;5065659;28;20463;-66
2023/05/26 02:04:00;;;;;;;18.13;11.57;;;13.50;26.00;;;;;;5066834;28;20544;-66
2023/05/26 02:06:27;;;;;;;18.07;10.63;;;13.50;26.00;;;;;;5067744;28;20468;-67
2023/05/26 02:08:54;;;;;;;15.57;10.20;;;13.50;26.00;;;;;;5064051;28;20477;-66
2023/05/26 02:11:21;;;;;;;20.53;11.47;;;13.50;26.00;;;;;;5067355;28;20480;-66
2023/05/26 02:13:48;;;;;;;16.90;11.33;;;13.50;26.00;;;;;;5071652;28;20503;-66
2023/05/26 02:16:16;;;;;;;16.00;11.30;;;13.40;25.90;;;;;;5065769;28;20482;-66
2023/05/26 02:18:45;;;;;;;16.17;12.27;;;13.40;26.00;;;;;;5069440;28;20449;-66
2023/05/26 02:21:12;;;;;;;17.33;11.17;;;13.40;25.90;;;;;;5069344;28;20528;-66
2023/05/26 02:23:39;;;;;;;15.50;11.07;;;13.40;25.90;;;;;;5067757;28;20480;-66
2023/05/26 02:26:06;;;;;;;17.53;10.93;;;13.40;25.90;;;;;;5066104;28;20484;-67
2023/05/26 02:28:32;;;;;;;16.73;10.50;;;13.30;25.90;;;;;;5065037;28;20480;-67
2023/05/26 02:30:59;;;;;;;15.80;10.47;;;13.30;25.70;;;;;;5079136;28;20469;-66
2023/05/26 02:33:27;;;;;;;15.13;10.33;;;13.30;25.80;;;;;;5092955;28;20499;-66
2023/05/26 02:35:54;;;;;;;20.63;11.07;;;13.20;25.60;;;;;;5070748;28;20461;-67
2023/05/26 02:38:22;;;;;;;19.33;11.33;;;13.20;25.60;;;;;;5068997;28;20487;-66
2023/05/26 02:40:49;;;;;;;18.63;11.13;;;13.20;25.60;;;;;;5071838;28;20473;-65
2023/05/26 02:43:16;;;;;;;14.17;10.83;;;13.20;25.60;;;;;;5071814;28;20991;-66
2023/05/26 02:45:42;;;;;;;18.67;10.57;;;13.20;25.60;;;;;;5070948;28;20456;-66
2023/05/26 02:48:09;;;;;;;17.10;10.80;;;13.10;25.70;;;;;;5070356;28;20462;-66
2023/05/26 02:50:37;;;;;;;17.03;10.97;;;13.10;25.80;;;;;;5070553;28;20456;-66
2023/05/26 02:53:04;;;;;;;16.40;10.83;;;13.10;25.90;;;;;;5070530;28;20476;-67
2023/05/26 02:55:31;;;;;;;23.27;12.97;;;13.00;25.80;;;;;;5071595;28;21008;-67
2023/05/26 02:57:57;;;;;;;15.20;10.20;;;13.00;25.70;;;;;;5069957;28;20518;-66
2023/05/26 03:00:24;;;;;;;16.70;11.30;;;13.00;25.80;;;;;;5070950;28;20453;-67
2023/05/26 03:02:51;;;;;;;19.00;11.77;;;13.00;25.90;;;;;;5071530;28;20496;-68
2023/05/26 03:05:18;;;;;;;21.43;12.07;;;12.90;26.20;;;;;;5070319;28;20871;-67
2023/05/26 03:07:46;;;;;;;18.63;11.23;;;12.90;26.00;;;;;;5070349;28;20471;-66
2023/05/26 03:10:13;;;;;;;19.37;11.83;;;12.90;26.20;;;;;;5068524;28;20473;-67
2023/05/26 03:12:40;;;;;;;18.27;11.47;;;12.90;26.30;;;;;;5070817;28;21032;-65
2023/05/26 03:15:08;;;;;;;19.63;12.00;;;12.80;26.40;;;;;;5068371;28;20483;-66
2023/05/26 03:17:35;;;;;;;18.63;11.87;;;12.80;26.60;;;;;;5067617;28;20460;-67
2023/05/26 03:20:01;;;;;;;18.13;12.20;;;12.80;26.50;;;;;;5067933;28;20987;-66
2023/05/26 03:22:28;;;;;;;17.67;10.53;;;12.80;26.40;;;;;;5070400;28;20485;-67
2023/05/26 03:24:56;;;;;;;17.60;10.77;;;12.80;26.40;;;;;;5066733;28;20970;-67
2023/05/26 03:27:23;;;;;;;15.43;10.37;;;12.80;26.40;;;;;;5070370;28;20454;-67
2023/05/26 03:29:50;;;;;;;20.57;12.00;;;12.80;26.40;;;;;;5068028;28;20562;-67
2023/05/26 03:32:17;;;;;;;16.33;10.87;;;12.80;26.40;;;;;;5059847;28;20867;-66
2023/05/26 03:34:44;;;;;;;16.57;11.70;;;12.70;26.50;;;;;;5069767;28;20460;-66
2023/05/26 03:37:11;;;;;;;18.03;11.60;;;12.70;26.50;;;;;;5065212;28;20472;-67
2023/05/26 03:39:38;;;;;;;15.63;10.60;;;12.70;26.60;;;;;;5063624;28;20501;-66
2023/05/26 03:42:07;;;;;;;20.90;12.13;;;12.70;26.60;;;;;;5062460;28;20485;-67
2023/05/26 03:44:33;;;;;;;25.03;13.13;;;12.70;26.60;;;;;;5067440;28;20487;-67
2023/05/26 03:47:01;;;;;;;16.13;12.07;;;12.70;26.60;;;;;;5067014;28;20479;-66
2023/05/26 03:49:27;;;;;;;19.83;12.43;;;12.70;26.80;;;;;;5066884;28;20484;-66
2023/05/26 03:51:54;;;;;;;14.70;11.23;;;12.70;26.90;;;;;;5069067;28;20485;-67
2023/05/26 03:54:21;;;;;;;17.53;13.23;;;12.70;26.80;;;;;;5066207;28;20473;-66
2023/05/26 03:56:48;;;;;;;16.47;11.80;;;12.80;26.60;;;;;;5067585;28;20457;-65
2023/05/26 03:59:16;;;;;;;17.17;11.40;;;12.80;26.50;;;;;;5112018;22;20488;-65
2023/05/26 04:01:42;;;;;;;17.10;12.30;;;12.80;26.50;;;;;;5063108;28;21204;-65
2023/05/26 04:04:09;;;;;;;18.10;12.07;;;12.80;26.40;;;;;;5068475;28;20988;-65
2023/05/26 04:06:37;;;;;;;18.10;11.80;;;12.90;26.50;;;;;;5067704;28;20457;-66
2023/05/26 04:09:04;;;;;;;17.17;10.83;;;12.90;26.30;;;;;;5069348;28;20514;-65
2023/05/26 04:11:31;;;;;;;17.43;11.70;;;12.90;26.20;;;;;;5067386;28;20464;-66
2023/05/26 04:13:58;;;;;;;17.17;11.27;;;13.00;26.10;;;;;;5068646;28;20493;-65
2023/05/26 04:16:26;;;;;;;16.40;12.20;;;13.10;26.10;;;;;;5067870;28;20460;-65
2023/05/26 04:18:52;;;;;;;15.27;10.90;;;13.10;25.90;;;;;;5069364;28;20464;-66
2023/05/26 04:21:19;;;;;;;19.10;10.37;;;13.10;25.60;;;;;;5068398;28;20457;-65
2023/05/26 04:23:47;;;;;;;16.23;11.80;;;13.20;25.60;;;;;;5067383;28;20484;-65
2023/05/26 04:26:16;;;;;;;18.13;10.60;;;13.40;25.40;;;;;;5067784;28;20953;-65
2023/05/26 04:28:43;;;;;;;16.07;11.07;;;14.00;24.70;;;;;;5065958;28;20469;-65
2023/05/26 04:31:10;;;;;;;17.30;10.80;;;14.80;22.50;;;;;;5066719;28;20472;-65
2023/05/26 04:33:39;;;;;;;18.03;11.27;;;15.60;20.30;;;;;;5067233;28;20477;-65
2023/05/26 04:36:08;;;;;;;15.80;11.00;;;16.40;18.40;;;;;;5068107;28;20470;-67
2023/05/26 04:38:35;;;;;;;15.53;11.20;;;16.50;17.40;;;;;;5068358;28;20541;-67
2023/05/26 04:41:06;;;;;;;15.77;10.30;;;16.20;17.60;;;;;;5059921;28;20472;-67
2023/05/26 04:43:34;;;;;;;20.10;10.70;;;16.00;18.00;;;;;;5063184;28;20480;-67
2023/05/26 04:46:02;;;;;;;16.53;10.57;;;15.70;18.40;;;;;;5067861;28;20457;-67
2023/05/26 04:48:28;;;;;;;16.63;11.10;;;15.70;18.80;;;;;;5063885;28;21235;-67
2023/05/26 04:50:57;;;;;;;13.97;9.40;;;16.70;18.30;;;;;;5068962;28;20485;-67
2023/05/26 04:53:23;;;;;;;16.60;9.33;;;18.30;15.40;;;;;;5068040;28;20489;-67
2023/05/26 04:55:50;;;;;;;12.50;10.20;;;19.60;12.40;;;;;;5067559;28;20461;-67
2023/05/26 04:58:17;;;;;;;14.60;9.87;;;20.90;9.50;;;;;;5067342;28;20465;-67
2023/05/26 05:00:44;;;;;;;15.53;9.50;;;22.00;7.00;;;;;;5065378;28;20973;-67
2023/05/26 05:03:10;;;;;;;12.20;8.57;;;23.00;5.00;;;;;;5067548;28;21068;-68
2023/05/26 05:05:37;;;;;;;14.80;8.60;;;23.90;3.10;;;;;;5068890;28;20464;-68
2023/05/26 05:08:05;;;;;;;13.67;9.00;;;24.80;1.70;;;;;;5068470;28;20752;-68
2023/05/26 05:10:32;;;;;;;14.73;9.50;;;25.60;1.00;;;;;;5067583;28;21179;-68
2023/05/26 05:13:00;;;;;;;16.70;8.97;;;26.30;1.00;;;;;;5067569;28;20579;-68
2023/05/26 05:15:26;;;;;;;11.00;8.90;;;27.00;1.00;;;;;;5067743;28;20465;-68
2023/05/26 05:17:53;;;;;;;12.60;9.63;;;27.80;1.00;;;;;;5068594;28;20457;-68
2023/05/26 05:20:20;;;;;;;14.83;9.07;;;28.50;1.00;;;;;;5069774;28;20453;-68
2023/05/26 05:22:47;;;;;;;15.40;9.30;;;29.20;1.00;;;;;;5068597;28;20477;-68
2023/05/26 05:25:15;;;;;;;11.50;9.07;;;29.80;1.00;;;;;;5067866;28;20453;-68
2023/05/26 05:27:42;;;;;;;10.73;8.50;;;30.50;1.00;;;;;;5068402;28;20449;-68
2023/05/26 05:30:09;;;;;;;12.77;9.10;;;31.10;1.00;;;;;;5067150;28;20485;-68
2023/05/26 05:32:36;;;;;;;11.93;8.03;;;31.70;1.00;;;;;;5068011;28;20461;-68
2023/05/26 05:35:03;;;;;;;13.17;8.30;;;32.30;1.00;;;;;;5067538;28;20471;-68
2023/05/26 05:37:29;;;;;;;13.67;9.80;;;32.90;1.00;;;;;;5068244;28;20449;-68
2023/05/26 05:39:56;;;;;;;10.33;8.07;;;33.40;1.00;;;;;;5067639;28;20960;-69
2023/05/26 05:42:24;;;;;;;15.10;8.50;;;33.90;1.00;;;;;;5066754;28;20491;-68
2023/05/26 05:44:51;;;;;;;12.50;8.10;;;34.50;1.00;;;;;;5066642;28;20457;-68
2023/05/26 05:47:18;;;;;;;11.63;7.80;;;35.00;1.00;;;;;;5066773;28;20457;-68
2023/05/26 05:49:45;;;;;;;10.40;8.40;;;35.50;1.00;;;;;;5068532;28;20485;-68
2023/05/26 05:52:13;;;;;;;10.23;8.47;;;36.00;1.00;;;;;;5067945;28;20477;-68
2023/05/26 05:54:40;;;;;;;11.03;7.80;;;36.50;1.00;;;;;;5068285;28;20457;-68
2023/05/26 05:57:07;;;;;;;12.23;7.97;;;36.90;1.00;;;;;;5067340;28;20484;-68
2023/05/26 05:59:35;;;;;;;11.33;8.07;;;37.30;1.00;;;;;;5066942;28;20492;-68
2023/05/26 06:02:01;;;;;;;12.07;7.53;;;37.90;1.00;;;;;;5067832;28;20465;-68
2023/05/26 06:04:28;;;;;;;11.17;7.27;;;38.40;1.00;;;;;;5067481;28;20464;-68
2023/05/26 06:06:55;;;;;;;11.20;8.07;;;38.70;1.00;;;;;;5067369;28;20453;-68
2023/05/26 06:09:22;;;;;;;9.63;7.20;;;39.20;1.00;;;;;;5067585;28;20468;-68
2023/05/26 06:11:49;;;;;;;10.50;6.33;;;39.50;1.00;;;;;;5068499;28;20477;-68
2023/05/26 06:14:15;;;;;;;9.30;8.30;;;40.00;1.00;;;;;;5067679;28;20457;-68
2023/05/26 06:16:43;;;;;;;10.80;7.70;;;40.50;1.00;;;;;;5065450;28;20472;-68
2023/05/26 06:19:10;;;;;;;10.90;8.50;;;40.80;1.00;;;;;;5066946;28;20981;-69
2023/05/26 06:21:37;;;;;;;8.30;7.10;;;41.00;1.00;;;;;;5067632;28;20488;-69
2023/05/26 06:24:04;;;;;;;11.67;8.27;;;41.60;1.00;;;;;;5066834;28;20468;-69
2023/05/26 06:26:30;;;;;;;13.87;8.00;;;42.00;1.00;;;;;;5066329;28;20454;-69
2023/05/26 06:28:57;;;;;;;9.27;7.87;;;42.50;1.00;;;;;;5064140;28;20471;-69
2023/05/26 06:31:25;;;;;;;10.40;6.60;;;42.90;1.00;;;;;;5066216;28;20476;-69
2023/05/26 06:33:54;;;;;;;10.10;7.30;;;43.20;1.00;;;;;;5067295;28;20484;-69
2023/05/26 06:36:21;;;;;;;9.67;7.70;;;43.70;1.00;;;;;;5067271;28;20469;-69
2023/05/26 06:38:48;;;;;;;9.73;7.13;;;44.20;1.00;;;;;;5067038;28;20468;-69
2023/05/26 06:41:15;;;;;;;10.40;7.40;;;44.60;1.00;;;;;;5063301;28;20457;-69
2023/05/26 06:43:41;;;;;;;9.77;7.00;;;44.90;1.00;;;;;;5066219;28;20768;-69
2023/05/26 06:46:08;;;;;;;10.33;7.10;;;45.10;1.00;;;;;;5066884;28;20475;-69
2023/05/26 06:48:35;;;;;;;12.33;6.80;;;45.50;1.00;;;;;;5067690;28;20464;-69
2023/05/26 06:51:03;;;;;;;9.37;7.23;;;46.00;1.00;;;;;;5063169;28;20490;-69
2023/05/26 06:53:30;;;;;;;11.87;7.43;;;46.40;1.00;;;;;;5063114;28;20496;-69
2023/05/26 06:55:56;;;;;;;12.50;7.47;;;46.70;1.00;;;;;;5063801;28;20545;-69
2023/05/26 06:58:23;;;;;;;9.13;7.40;;;47.00;1.00;;;;;;5070446;28;20461;-69
2023/05/26 07:00:58;;;;;;;8.53;6.30;;;47.20;1.00;;;;;;5070035;28;20991;-69
2023/05/26 07:03:24;;;;;;;8.67;6.67;;;47.50;1.00;;;;;;5071116;28;20490;-69
2023/05/26 07:05:51;;;;;;;8.27;6.40;;;47.40;1.00;;;;;;5070914;28;20461;-69
2023/05/26 07:08:19;;;;;;;8.77;6.53;;;47.50;1.00;;;;;;5069838;28;20464;-69
2023/05/26 07:10:46;;;;;;;10.43;8.00;;;47.70;1.00;;;;;;5066321;28;20487;-69
2023/05/26 07:13:13;;;;;;;11.23;7.07;;;47.90;1.00;;;;;;5068818;28;20498;-69
2023/05/26 07:15:40;;;;;;;9.60;7.13;;;48.10;1.00;;;;;;5070549;28;20461;-69
2023/05/26 07:18:07;;;;;;;9.13;7.07;;;48.60;1.00;;;;;;5071212;28;20483;-69
2023/05/26 07:20:34;;;;;;;8.83;6.93;;;49.00;1.00;;;;;;5070370;28;20461;-69
2023/05/26 07:23:01;;;;;;;9.10;7.23;;;49.30;1.00;;;;;;5069146;28;20573;-69
2023/05/26 07:25:29;;;;;;;9.37;7.10;;;49.60;1.00;;;;;;5070603;28;20465;-69
2023/05/26 07:27:56;;;;;;;7.53;6.73;;;49.40;1.00;;;;;;5065746;28;20453;-69
2023/05/26 07:30:22;;;;;;;9.90;6.17;;;49.30;1.00;;;;;;5069538;28;21167;-69
2023/05/26 07:32:50;;;;;;;9.93;8.00;;;49.60;1.00;;;;;;5071217;28;20488;-69
2023/05/26 07:35:16;;;;;;;7.73;6.93;;;49.80;1.00;;;;;;5070350;28;20927;-69
2023/05/26 07:37:43;;;;;;;10.63;6.53;;;50.10;1.00;;;;;;5068599;28;20500;-69
2023/05/26 07:40:11;;;;;;;10.07;6.97;;;50.40;1.00;;;;;;5069373;28;20465;-69
2023/05/26 07:42:39;;;;;;;9.80;8.43;;;50.70;1.00;;;;;;5070307;28;20477;-69
2023/05/26 07:45:06;;;;;;;9.80;6.80;;;51.10;1.00;;;;;;5068943;28;20468;-70
2023/05/26 07:47:34;;;;;;;10.90;7.60;;;51.40;1.00;;;;;;5069673;28;20468;-69
2023/05/26 07:50:01;;;;;;;7.77;6.83;;;51.70;1.00;;;;;;5068422;28;21012;-69
2023/05/26 07:52:28;;;;;;;10.73;7.00;;;51.80;1.00;;;;;;5066357;28;20493;-69
2023/05/26 07:54:55;;;;;;;8.83;6.47;;;52.20;1.00;;;;;;5063356;28;20464;-69
2023/05/26 07:57:21;;;;;;;7.70;6.90;;;52.40;1.00;;;;;;5068019;28;20963;-69
2023/05/26 07:59:49;;;;;;;9.80;6.50;;;52.50;1.00;;;;;;5067781;28;20831;-69
2023/05/26 08:02:16;;;;;;;10.53;7.07;;;52.40;1.00;;;;;;5067228;28;20471;-69
2023/05/26 08:04:43;;;;;;;8.40;6.90;;;52.80;1.00;;;;;;5068747;28;20989;-69
2023/05/26 08:07:10;;;;;;;8.40;7.00;;;53.00;1.00;;;;;;5069040;28;20480;-69
2023/05/26 08:09:36;;;;;;;11.20;7.37;;;53.20;1.00;;;;;;5064728;28;20456;-69
2023/05/26 08:12:03;;;;;;;9.33;7.03;;;53.30;1.00;;;;;;5069777;28;20476;-69
2023/05/26 08:14:30;;;;;;;8.90;6.30;;;53.40;1.00;;;;;;5067423;28;20456;-69
2023/05/26 08:16:58;;;;;;;8.33;6.70;;;53.40;1.00;;;;;;5068632;28;20463;-69
2023/05/26 08:19:25;;;;;;;8.90;6.37;;;53.60;1.00;;;;;;5069451;28;20457;-69
2023/05/26 08:21:52;;;;;;;10.20;7.20;;;53.90;1.00;;;;;;5069713;28;20500;-69
2023/05/26 08:24:19;;;;;;;9.93;7.43;;;54.00;1.00;;;;;;5068690;28;20827;-69
2023/05/26 08:26:46;;;;;;;11.43;8.07;;;54.00;1.00;;;;;;5066959;28;20456;-69
2023/05/26 08:29:12;;;;;;;9.63;7.03;;;54.10;1.00;;;;;;5069516;28;20485;-69
2023/05/26 08:31:39;;;;;;;8.33;6.40;;;54.20;1.00;;;;;;5068026;28;20479;-69
2023/05/26 08:34:08;;;;;;;10.80;6.77;;;54.40;1.00;;;;;;5068045;28;20457;-69
2023/05/26 08:36:35;;;;;;;10.00;6.83;;;54.50;1.00;;;;;;5067440;28;20503;-69
2023/05/26 08:39:02;;;;;;;9.83;6.07;;;54.60;1.00;;;;;;5069656;28;20496;-69
2023/05/26 08:41:36;;;;;;;8.53;5.73;;;54.60;1.00;;;;;;5068694;28;20475;-69
2023/05/26 08:44:05;;;;;;;9.00;7.10;;;54.90;1.00;;;;;;5067974;28;20461;-69
2023/05/26 08:46:33;;;;;;;9.70;7.47;;;54.80;1.00;;;;;;5068029;28;20948;-70
2023/05/26 08:49:01;;;;;;;8.43;6.23;;;54.70;1.00;;;;;;5068327;28;20461;-70
2023/05/26 08:51:32;;;;;;;8.53;6.50;;;54.90;1.00;;;;;;5068578;28;20495;-70
2023/05/26 08:53:59;;;;;;;10.30;6.40;;;55.10;1.00;;;;;;5068847;28;20548;-70
2023/05/26 08:56:26;;;;;;;9.27;6.47;;;55.30;1.00;;;;;;5068276;28;20460;-70
2023/05/26 08:58:54;;;;;;;7.93;6.30;;;55.30;1.00;;;;;;5068168;28;20469;-70
2023/05/26 09:01:21;;;;;;;8.57;7.20;;;55.30;1.00;;;;;;5067689;28;20483;-70
2023/05/26 09:03:47;;;;;;;9.70;7.80;;;55.20;1.00;;;;;;5064068;28;20498;-70
2023/05/26 09:06:14;;;;;;;7.83;6.80;;;54.90;1.00;;;;;;5066777;28;20976;-70
2023/05/26 09:08:42;;;;;;;8.10;6.37;;;54.60;1.00;;;;;;5068603;28;20461;-69
2023/05/26 09:11:27;;;;;;;9.67;7.33;;;54.80;1.00;;;;;;5068169;28;20476;-69
2023/05/26 09:13:55;;;;;;;11.30;7.20;;;54.90;1.00;;;;;;5065815;28;20871;-69
2023/05/26 09:16:26;;;;;;;9.17;6.67;;;54.90;1.00;;;;;;5068165;28;20461;-69
2023/05/26 09:18:57;;;;;;;8.33;7.37;;;54.80;1.00;;;;;;5067427;28;20472;-69
2023/05/26 09:21:25;;;;;;;7.90;6.77;;;54.70;1.00;;;;;;5066904;28;20480;-70
2023/05/26 09:23:58;;;;;;;9.60;7.43;;;54.50;1.00;;;;;;5064176;28;20480;-69
2023/05/26 09:26:29;;;;;;;10.60;8.17;;;54.40;1.00;;;;;;5068229;28;20475;-69
2023/05/26 09:28:56;;;;;;;8.30;7.47;;;54.20;1.00;;;;;;5065591;28;20457;-69
2023/05/26 09:31:24;;;;;;;9.90;7.93;;;53.80;1.00;;;;;;5068147;28;20475;-69
2023/05/26 09:33:51;;;;;;;10.00;7.83;;;52.80;1.00;;;;;;5066748;28;20456;-69
2023/05/26 09:36:22;;;;;;;11.50;7.40;;;50.40;1.00;;;;;;5067493;28;20457;-69
2023/05/26 09:38:51;;;;;;;9.47;7.10;;;48.00;1.00;;;;;;5068069;28;20453;-69
2023/05/26 09:41:20;;;;;;;10.63;7.37;;;45.90;1.00;;;;;;5067760;28;20453;-69
2023/05/26 09:43:50;;;;;;;10.77;8.00;;;44.00;1.00;;;;;;5067824;28;20520;-69
2023/05/26 09:46:22;;;;;;;11.17;8.33;;;42.30;1.00;;;;;;5068029;28;20453;-69
2023/05/26 09:48:50;;;;;;;10.43;8.50;;;40.50;1.00;;;;;;5064293;28;20552;-69
2023/05/26 09:51:19;;;;;;;11.10;7.97;;;39.00;1.00;;;;;;5063246;28;20490;-69
2023/05/26 09:53:45;;;;;;;11.67;8.93;;;37.80;1.00;;;;;;5058938;28;20496;-67
2023/05/26 09:56:12;;;;;;;18.90;8.80;;;36.60;1.00;;;;;;5064676;28;20485;-66
2023/05/26 09:58:45;;;;;;;12.77;7.90;;;35.50;1.00;;;;;;5076778;22;20503;-67
2023/05/26 10:01:12;;;;;;;10.97;7.50;;;34.60;1.00;;;;;;5059072;28;20473;-68
2023/05/26 10:03:38;;;;;;;12.40;7.90;;;33.80;1.00;;;;;;5058266;28;20492;-67
2023/05/26 10:06:06;;;;;;;15.80;8.43;;;33.10;1.00;;;;;;5057408;28;20838;-68
2023/05/26 10:08:35;;;;;;;12.57;8.10;;;32.50;1.00;;;;;;5057499;28;20462;-69
2023/05/26 10:11:02;;;;;;;11.10;7.70;;;32.10;1.00;;;;;;5061432;28;20485;-68
2023/05/26 10:13:29;;;;;;;11.90;8.47;;;31.60;1.00;;;;;;5059913;28;21017;-67
2023/05/26 10:15:57;;;;;;;14.60;8.77;;;31.20;1.00;;;;;;5060527;28;20458;-66
2023/05/26 10:18:24;;;;;;;11.20;7.80;;;30.80;1.00;;;;;;5053583;28;20473;-70
2023/05/26 10:20:54;;;;;;;12.80;7.67;;;30.50;1.00;;;;;;5050382;28;20466;-69
2023/05/26 10:23:25;;;;;;;12.50;7.57;;;30.20;1.00;;;;;;5049760;28;21101;-70
2023/05/26 10:25:59;;;;;;;11.60;8.70;;;30.00;1.00;;;;;;5050444;28;20479;-67
2023/05/26 10:28:33;;;;;;;16.53;8.90;;;29.70;1.00;;;;;;5055512;28;20461;-68
2023/05/26 10:31:02;;;;;;;14.37;7.10;;;29.40;1.00;;;;;;5056101;28;20465;-68
2023/05/26 10:33:39;;;;;;;12.77;8.17;;;29.10;1.00;;;;;;5061200;28;20485;-68
2023/05/26 10:36:08;;;;;;;10.13;6.93;;;28.70;1.00;;;;;;5057467;28;20525;-68
2023/05/26 10:38:38;;;;;;;13.80;7.40;;;28.50;1.00;;;;;;5053852;28;20464;-68
2023/05/26 10:41:11;;;;;;;10.90;7.70;;;28.30;1.00;;;;;;5060664;28;20468;-66
2023/05/26 10:43:38;;;;;;;11.93;7.10;;;28.20;1.00;;;;;;5056588;28;20491;-67
2023/05/26 10:46:07;;;;;;;13.60;8.13;;;28.10;1.00;;;;;;5056029;28;20518;-68
2023/05/26 10:48:35;;;;;;;9.20;6.90;;;28.00;1.00;;;;;;5054658;28;20470;-67
2023/05/26 10:51:18;;;;;;;11.63;7.10;;;27.90;1.00;;;;;;5051288;28;20520;-67
2023/05/26 10:53:47;;;;;;;11.43;7.50;;;27.70;1.00;;;;;;5060147;28;20485;-71
2023/05/26 10:56:17;;;;;;;12.10;6.70;;;27.70;1.00;;;;;;5058069;28;21263;-70
2023/05/26 10:58:47;;;;;;;10.50;6.87;;;27.60;1.00;;;;;;5055440;28;20485;-66
2023/05/26 11:01:22;;;;;;;11.20;6.10;;;27.40;1.00;;;;;;5051871;28;20466;-66
2023/05/26 11:03:55;;;;;;;13.27;7.20;;;27.20;1.00;;;;;;5055986;28;20468;-66
2023/05/26 11:06:35;;;;;;;11.00;6.90;;;27.10;1.00;;;;;;5056960;28;20473;-66
2023/05/26 11:09:07;;;;;;;11.67;7.43;;;27.00;1.00;;;;;;5056410;28;21094;-66
2023/05/26 11:11:38;;;;;;;11.97;7.20;;;26.90;1.00;;;;;;5057014;28;20495;-65
2023/05/26 11:14:06;;;;;;;11.40;6.90;;;26.90;1.00;;;;;;5053092;28;20575;-67
2023/05/26 11:16:36;;;;;;;10.60;6.03;;;26.80;1.00;;;;;;5058076;28;20473;-67
2023/05/26 11:19:05;;;;;;;10.97;6.77;;;26.70;1.00;;;;;;5060297;28;20485;-68
2023/05/26 11:21:33;;;;;;;11.97;7.37;;;26.50;1.00;;;;;;5057467;28;20461;-68
2023/05/26 11:24:01;;;;;;;11.00;6.00;;;26.50;1.00;;;;;;5062986;28;20461;-68
2023/05/26 11:26:31;;;;;;;9.97;6.37;;;26.40;1.00;;;;;;5061471;28;20508;-67
2023/05/26 11:28:58;;;;;;;9.43;6.00;;;26.40;1.00;;;;;;5061883;28;20474;-68
2023/05/26 11:31:26;;;;;;;10.53;6.67;;;26.30;1.00;;;;;;5062096;28;20477;-71
2023/05/26 11:33:55;;;;;;;10.63;5.87;;;26.20;1.00;;;;;;5056153;28;20503;-69
2023/05/26 11:36:23;;;;;;;9.97;6.43;;;26.20;1.00;;;;;;5060344;28;21043;-69
2023/05/26 11:38:54;;;;;;;10.70;6.77;;;26.10;1.00;;;;;;5059254;28;20497;-69
2023/05/26 11:41:25;;;;;;;9.87;6.17;;;26.00;1.00;;;;;;5058738;28;20535;-70
2023/05/26 11:43:54;;;;;;;10.13;6.40;;;26.00;1.00;;;;;;5064500;28;20479;-69
2023/05/26 11:46:22;;;;;;;11.07;6.10;;;26.00;1.00;;;;;;5063699;28;20465;-70
2023/05/26 11:48:49;;;;;;;12.57;6.77;;;25.70;1.00;;;;;;5063042;28;20465;-69
2023/05/26 11:51:19;;;;;;;10.20;6.97;;;25.70;1.00;;;;;;5059381;28;20458;-69
2023/05/26 11:53:47;;;;;;;12.10;6.80;;;25.70;1.00;;;;;;5061692;28;20485;-69
2023/05/26 11:56:15;;;;;;;13.20;6.50;;;25.70;1.00;;;;;;5063551;28;20465;-70
2023/05/26 11:58:43;;;;;;;10.23;7.17;;;25.70;1.00;;;;;;5056304;28;20473;-69
2023/05/26 12:01:11;;;;;;;11.50;6.70;;;25.60;1.00;;;;;;5060784;28;20481;-70
2023/05/26 12:03:40;;;;;;;10.10;6.33;;;25.60;1.00;;;;;;5056738;28;20489;-69
2023/05/26 12:06:15;;;;;;;10.57;6.77;;;25.60;1.00;;;;;;5057908;28;20500;-71
2023/05/26 12:08:50;;;;;;;9.83;6.30;;;25.60;1.00;;;;;;5056807;28;20552;-71
2023/05/26 12:11:21;;;;;;;10.93;6.47;;;25.70;1.00;;;;;;5055893;28;20469;-71
2023/05/26 12:13:55;;;;;;;9.80;6.70;;;25.70;1.00;;;;;;5051196;28;20509;-70
2023/05/26 12:16:24;;;;;;;9.73;6.13;;;25.80;1.50;;;;;;5057061;28;20559;-69
2023/05/26 12:18:55;;;;;;;11.73;6.30;;;25.80;1.00;;;;;;5058583;28;20613;-70
2023/05/26 12:21:23;;;;;;;12.83;6.60;;;25.80;1.20;;;;;;5052139;28;20472;-69
2023/05/26 12:23:51;;;;;;;11.77;7.00;;;26.00;1.30;;;;;;5052163;28;20463;-69
2023/05/26 12:26:22;;;;;;;13.20;6.67;;;26.10;1.00;;;;;;5050696;28;20461;-70
2023/05/26 12:29:05;;;;;;;9.10;6.07;;;26.20;1.00;;;;;;5053381;28;20466;-70
2023/05/26 12:31:43;;;;;;;10.70;7.03;;;26.20;1.00;;;;;;5056901;28;20485;-70
2023/05/26 12:34:11;;;;;;;9.43;6.60;;;26.10;1.00;;;;;;5054074;28;20469;-70
2023/05/26 12:36:38;;;;;;;10.00;6.90;;;26.00;1.00;;;;;;5052366;28;21008;-69
2023/05/26 12:39:07;;;;;;;12.73;7.57;;;25.90;1.00;;;;;;5056172;28;20470;-70
2023/05/26 12:41:35;;;;;;;12.20;7.63;;;25.90;1.00;;;;;;5051108;28;20469;-70
2023/05/26 12:44:01;;;;;;;11.20;7.03;;;25.80;1.00;;;;;;5051367;28;21039;-70
2023/05/26 12:46:28;;;;;;;11.10;7.10;;;25.80;1.00;;;;;;5053148;28;20464;-70